createdAt,value
2022-08-19T00:23:37.689Z,17.00
2022-08-19T00:53:41.909Z,15.52
2022-08-19T01:23:46.784Z,12.93
2022-08-19T01:53:53.118Z,13.60
2022-08-19T02:23:57.787Z,13.48
2022-08-19T02:54:01.985Z,13.50
2022-08-19T03:24:07.974Z,13.00
2022-08-19T03:54:14.449Z,10.90
2022-08-19T04:29:42.708Z,13.93
2022-08-19T04:59:49.012Z,13.98
2022-08-19T05:29:53.122Z,16.17
2022-08-19T05:59:59.092Z,15.60
2022-08-19T06:30:03.921Z,15.00
2022-08-19T07:00:12.929Z,19.23
2022-08-19T07:30:17.420Z,17.10
2022-08-19T08:00:24.382Z,20.30
2022-08-19T08:30:31.139Z,21.75
2022-08-19T09:00:39.565Z,21.55
2022-08-19T09:30:43.675Z,12.82
2022-08-19T10:30:55.751Z,7.30
2022-08-19T11:01:00.783Z,6.90
2022-08-19T11:31:05.283Z,7.28
2022-08-19T12:01:10.492Z,10.98
2022-08-19T12:31:14.725Z,7.93
2022-08-19T13:01:23.013Z,7.53
2022-08-19T13:31:46.514Z,7.93
2022-08-19T14:01:50.912Z,5.95
2022-08-19T14:31:55.068Z,7.53
2022-08-19T15:02:00.624Z,5.65
2022-08-19T15:32:26.615Z,5.60
2022-08-19T16:02:48.732Z,5.60
2022-08-19T16:32:57.713Z,6.50
2022-08-19T17:03:09.304Z,6.40
2022-08-19T17:33:16.711Z,6.88
2022-08-19T18:03:20.924Z,6.32
2022-08-19T18:33:25.576Z,4.72
2022-08-19T19:03:29.772Z,3.35
2022-08-19T19:33:33.934Z,2.90
2022-08-19T20:03:38.195Z,2.60
2022-08-19T20:33:42.488Z,2.20
2022-08-19T21:03:46.623Z,2.45
2022-08-19T21:33:50.821Z,2.50
2022-08-19T22:03:54.952Z,2.65
2022-08-19T22:33:59.099Z,2.70
2022-08-19T23:04:03.862Z,2.00
2022-08-19T23:34:08.224Z,1.55
